KSLC

Salt Lake City International Airport

Salt Lake City, Utah, USA
KSLC 210906Z 2109/2212 17008KT P6SM SCT100 FM211800 31007KT P6SM FEW100 SCT200 FM212000 33012G20KT P6SM SCT200 FM220200 33007KT P6SM SKC
Issued Valid From Valid To
Jun-21 @ 09:06 UTC
(an hour ago)
Jun-21 @ 09:00 UTC
(an hour ago)
Jun-22 @ 12:00 UTC
(-1 days ago)
Jun-21 @ 09:00 to Jun-21 @ 18:00
KSLC 210906Z 2109/2212 17008KT P6SM SCT100
Wind Visibility Clouds
170° at 8 knots Greater than 6 miles
  • Scattered at 10,000' AGL
From Jun-21 @ 18:00 to Jun-21 @ 20:00
FM211800 31007KT P6SM FEW100 SCT200
Wind Visibility Clouds
310° at 7 knots Greater than 6 miles
  • Few at 10,000' AGL
  • Scattered at 20,000' AGL
From Jun-21 @ 20:00 to Jun-22 @ 02:00
FM212000 33012G20KT P6SM SCT200
Wind Visibility Clouds
330° at 12 knots
 Gusting to 20 knots
Greater than 6 miles
  • Scattered at 20,000' AGL
From Jun-22 @ 02:00 to Jun-22 @ 12:00
FM220200 33007KT P6SM SKC
Wind Visibility Clouds
330° at 7 knots Greater than 6 miles
  • Clear skies
KSLC 210906Z 2109/2212 17008KT P6SM SCT100 FM211800 31007KT P6SM FEW100 SCT200 FM212000 33012G20KT P6SM SCT200 FM220200 33007KT P6SM SKC
Issued Jun-21 @ 09:06 UTC
(an hour ago)
Valid From Jun-21 @ 09:00 UTC
(an hour ago)
Valid To Jun-22 @ 12:00 UTC
(-1 days ago)
Jun-21 @ 09:00 - Jun-21 @ 18:00
Wind Visibility
170° at 8 knots Greater than 6 miles
Clouds
  • Scattered at 10,000' AGL
From Jun-21 @ 18:00 - Jun-21 @ 20:00
Wind Visibility
310° at 7 knots Greater than 6 miles
Clouds
  • Few at 10,000' AGL
  • Scattered at 20,000' AGL
From Jun-21 @ 20:00 - Jun-22 @ 02:00
Wind Visibility
330° at 12 knots
 Gusting to 20 knots
Greater than 6 miles
Clouds
  • Scattered at 20,000' AGL
From Jun-22 @ 02:00 - Jun-22 @ 12:00
Wind Visibility
330° at 7 knots Greater than 6 miles
Clouds
  • Clear skies